EKBI/BLL METAR and TAF weather

Enter ICAO airport designator
Station Type Date Time Source
EKBI METAR 2018/01/21 12:20 UTC NOAA

EKBI 211220Z AUTO 11004KT 080V140 3900NDV BR BKN005/// 01/01 Q1014


Station Type Date Time Source
EKBI Decoded METAR 2018/01/21 12:20 UTC NOAA

Billund Lufthavn, Denmark (EKBI) 55-44N 009-10E 79M
Jan 21, 2018 - 07:20 AM EST / 2018.01.21 1220 UTC
Wind: from the ESE (110 degrees) at 5 MPH (4 KT) (direction variable):0
Sky conditions: mostly cloudy
Weather: mist
Temperature: 33 F (1 C)
Windchill: 28 F (-2 C):1
Dew Point: 33 F (1 C)
Relative Humidity: 100%
Pressure (altimeter): 29.94 in. Hg (1014 hPa)
ob: EKBI 211220Z AUTO 11004KT 080V140 3900NDV BR BKN005/// 01/01 Q1014
cycle: 12

Station Type Date Time Source
EKBI TAF 2018/01/21 12:30 UTC NOAA

TAF EKBI 211127Z 2112/2212 12006KT 0800 FZFG BKN002
TEMPO 2112/2124 6000 NSW BKN015
BECMG 2200/2202 14012KT 6000 NSW BKN015
TEMPO 2202/2212 1500 -SN BKN002


Example: see airport list